»·PEaware :: N235B KSMX-KBFL

N235B :: KSMX-KBFL

FLIGHT INFORMATION

Flight Status: Arrived
Operator: Privately registered:
United States
More flights under this callsign
Pilot: Jason D. (29273)
Aircraft: BEECH AIRCRAFT SUPER KING AIR 350
(B350)
More flights by this aircraft type
Origin: KSMX Santa Maria Pub/Capt Hancock
United States
Destination: KBFL Meadows
United States
More flights between these airports :: More routes between these airports
Route: KSMX DCT KBFL
File this flight plan on PilotEdge
Remarks:
Altitude:
(Current/Filed)
3,500ft
Speed:
(Current/Filed)
110kts
Departed: 05-Oct-20 10:06 AM
Arrived: 05-Oct-20 10:56 AM
Distance/Time
Traveled:
112nm/0:50
Distance/Time
To Go:
Arrived

Flight Plot

Page will automatically refresh every two minutes.

Flight plan parsing failed; only flown route is shown


Map Options




Map Legend


Flown Route
Filed Route
Departure Airport
Arrival Airport
Navaid (VOR, NDB)
Fix

Horizontal Profiles

Position Reports

Time Latitude Longitude Heading Altitude Ground
Speed
05-Oct-20 09:59 34.894336 -120.443867 324 263ft 0kts
05-Oct-20 10:00 34.894336 -120.443867 323 263ft 0kts
05-Oct-20 10:01 34.894205 -120.444477 247 263ft 13kts
05-Oct-20 10:02 34.893182 -120.445094 221 264ft 0kts
05-Oct-20 10:03 34.893182 -120.445094 221 264ft 0kts
05-Oct-20 10:04 34.893182 -120.445094 221 264ft 0kts
05-Oct-20 10:05 34.894296 -120.447723 313 260ft 47kts
05-Oct-20 10:06 34.908143 -120.463929 320 469ft 58kts
05-Oct-20 10:07 34.918065 -120.469496 122 754ft 55kts
05-Oct-20 10:08 34.912980 -120.451883 109 1011ft 54kts
05-Oct-20 10:09 34.911248 -120.432079 82 1344ft 48kts
05-Oct-20 10:10 34.916270 -120.410931 71 1220ft 90kts
05-Oct-20 10:11 34.930202 -120.385419 51 1736ft 77kts
05-Oct-20 10:12 34.942995 -120.359089 85 1955ft 79kts
05-Oct-20 10:13 34.939705 -120.322172 116 1597ft 110kts
05-Oct-20 10:14 34.926662 -120.287334 132 1510ft 112kts
05-Oct-20 10:15 34.932526 -120.260599 10 1984ft 85kts
05-Oct-20 10:16 34.953588 -120.244498 31 2470ft 91kts
05-Oct-20 10:17 34.976864 -120.232245 12 3049ft 90kts
05-Oct-20 10:18 35.001992 -120.233685 336 3643ft 91kts
05-Oct-20 10:19 35.005355 -120.209199 110 3582ft 131kts
05-Oct-20 10:20 35.012706 -120.167207 65 3472ft 126kts
05-Oct-20 10:21 35.027524 -120.128900 64 3469ft 120kts
05-Oct-20 10:22 35.041190 -120.093473 64 3470ft 113kts
05-Oct-20 10:23 35.054547 -120.058765 63 3664ft 101kts
05-Oct-20 10:24 35.064739 -120.032235 63 4393ft 73kts
05-Oct-20 10:25 35.073941 -120.008235 64 4896ft 84kts
05-Oct-20 10:26 35.084382 -119.981027 64 5376ft 92kts
05-Oct-20 10:27 35.097017 -119.948043 64 5469ft 119kts
05-Oct-20 10:28 35.111365 -119.910605 64 5470ft 122kts
05-Oct-20 10:29 35.124557 -119.876084 64 5468ft 123kts
05-Oct-20 10:30 35.139137 -119.837911 64 5468ft 124kts
05-Oct-20 10:31 35.153703 -119.799727 64 5467ft 124kts
05-Oct-20 10:32 35.168266 -119.761524 64 5465ft 124kts
05-Oct-20 10:33 35.182827 -119.723250 64 5465ft 124kts
05-Oct-20 10:35 35.197380 -119.684964 64 5465ft 124kts
05-Oct-20 10:36 35.212032 -119.646380 64 5373ft 130kts
05-Oct-20 10:37 35.227641 -119.605218 64 4862ft 126kts
05-Oct-20 10:38 35.242060 -119.567157 64 4367ft 122kts
05-Oct-20 10:39 35.256485 -119.529010 64 3808ft 125kts
05-Oct-20 10:40 35.271149 -119.490230 64 3203ft 125kts
05-Oct-20 10:41 35.285773 -119.451471 64 2606ft 125kts
05-Oct-20 10:42 35.300424 -119.412604 64 2001ft 123kts
05-Oct-20 10:43 35.314541 -119.375108 63 1488ft 116kts
05-Oct-20 10:44 35.327411 -119.340886 63 1452ft 109kts
05-Oct-20 10:45 35.340054 -119.307229 64 1452ft 108kts
05-Oct-20 10:46 35.353275 -119.271995 64 1448ft 121kts
05-Oct-20 10:47 35.367573 -119.233855 64 1449ft 124kts
05-Oct-20 10:48 35.383434 -119.196439 56 1452ft 123kts
05-Oct-20 10:49 35.398001 -119.162584 63 1452ft 99kts
05-Oct-20 10:50 35.407493 -119.130909 67 1450ft 98kts
05-Oct-20 10:51 35.418498 -119.100549 62 1444ft 98kts
05-Oct-20 10:51 35.415144 -119.074955 127 1407ft 98kts
05-Oct-20 10:52 35.398006 -119.049123 131 1426ft 96kts
05-Oct-20 10:54 35.407113 -119.025778 318 1423ft 95kts
05-Oct-20 10:54 35.422617 -119.046335 316 649ft 94kts
05-Oct-20 10:55 35.433920 -119.059850 313 486ft 35kts
05-Oct-20 10:57 35.431204 -119.058864 222 483ft 0kts
05-Oct-20 10:57 0.000408 0.013975 0 3ft 0kts
05-Oct-20 10:58 0.000408 0.013975 0 5ft 0kts
05-Oct-20 10:59 0.000408 0.013975 0 5ft 0kts
05-Oct-20 11:00 0.000408 0.013975 0 5ft 0kts
05-Oct-20 11:01 0.000408 0.013975 0 5ft 0kts
05-Oct-20 11:02 0.000408 0.013975 0 5ft 0kts
05-Oct-20 11:03 0.000408 0.013975 0 5ft 0kts
05-Oct-20 11:04 0.000408 0.013975 0 5ft 0kts
05-Oct-20 11:05 0.000408 0.013975 0 5ft 0kts
05-Oct-20 11:06 0.000408 0.013975 0 5ft 0kts
05-Oct-20 11:07 0.000408 0.013975 0 5ft 0kts
05-Oct-20 11:08 0.000408 0.013975 0 5ft 0kts
05-Oct-20 11:09 34.196792 -118.352856 180 722ft 0kts

Navigation Log

Ident Type
Flight plan parsing failed, navigation log unavailable